Beloeil, Canada
Current Conditions -  °F | °C
As of 11:30 AM on Saturday 20 Dec 2014 (Local Time) from CYHU Reporting Station
Haze Haze  
Wind Chill:   Ceiling: 200
Heat Index: 12°   Visibility: 3mi
Dew Point:   Wind: 6mph
Humidity: 85%   Direction: 20°NNE
Pressure: 30.36"   Gusts: NA
Location:  45.57°N, 73.2°W
Report Text: CYHU 201630Z AUTO 02005KT 3SM BR OVC002 M11/M13 A3036 RMK SLP282
Loading
Personal Weather Stations






























Interactive Weather Map New forecast layout! Learn more

10-Day Weather Forecast

Advertisements
Track Severe Weather on mobile